TimeCDT,TemperatureF,Dew PointF,Humidity,Sea Level PressureIn,VisibilityMPH,Wind Direction,Wind SpeedMPH,Gust SpeedMPH,PrecipitationIn,Events,Conditions,WindDirDegrees,DateUTC
12:55 AM,50.0,26.6,40,29.76,10.0,West,4.6,-,N/A,,Clear,270,2013-03-16 05:55:00
1:15 AM,51.8,26.6,38,29.75,10.0,West,5.8,-,N/A,,Clear,270,2013-03-16 06:15:00
1:35 AM,48.2,24.8,40,29.75,10.0,WNW,4.6,-,N/A,,Clear,300,2013-03-16 06:35:00
1:55 AM,48.2,24.8,40,29.76,10.0,NNW,6.9,-,N/A,,Clear,330,2013-03-16 06:55:00
2:15 AM,46.4,24.8,43,29.76,10.0,North,5.8,-,N/A,,Clear,10,2013-03-16 07:15:00
2:35 AM,48.2,26.6,43,29.76,10.0,ENE,3.5,-,N/A,,Clear,60,2013-03-16 07:35:00
2:55 AM,46.4,26.6,46,29.76,10.0,Calm,Calm,-,N/A,,Clear,0,2013-03-16 07:55:00
3:15 AM,44.6,24.8,46,29.75,10.0,Calm,Calm,-,N/A,,Clear,0,2013-03-16 08:15:00
3:35 AM,42.8,24.8,49,29.74,10.0,Calm,Calm,-,N/A,,Clear,0,2013-03-16 08:35:00
3:55 AM,44.6,26.6,49,29.73,10.0,ENE,6.9,-,N/A,,Clear,70,2013-03-16 08:55:00
4:15 AM,48.2,28.4,46,29.73,10.0,NE,10.4,-,N/A,,Clear,50,2013-03-16 09:15:00
4:35 AM,53.6,30.2,41,29.74,10.0,NE,20.7,-,N/A,,Clear,50,2013-03-16 09:35:00
5:15 AM,48.2,26.6,43,29.76,10.0,NE,19.6,27.6,N/A,,Clear,40,2013-03-16 10:15:00
5:35 AM,48.2,30.2,50,29.78,10.0,NE,24.2,28.8,N/A,,Clear,50,2013-03-16 10:35:00
5:55 AM,48.2,33.8,58,29.80,10.0,NE,25.3,32.2,N/A,,Clear,50,2013-03-16 10:55:00
6:15 AM,46.4,33.8,62,29.81,10.0,NE,24.2,31.1,N/A,,Clear,40,2013-03-16 11:15:00
6:35 AM,46.4,33.8,62,29.83,10.0,NE,23.0,29.9,N/A,,Clear,40,2013-03-16 11:35:00
6:55 AM,46.4,33.8,62,29.85,10.0,NNE,25.3,32.2,N/A,,Clear,30,2013-03-16 11:55:00
7:15 AM,46.4,33.8,62,29.87,10.0,NE,23.0,-,N/A,,Clear,40,2013-03-16 12:15:00
7:35 AM,46.4,32.0,57,29.88,10.0,NE,23.0,27.6,N/A,,Clear,40,2013-03-16 12:35:00
7:55 AM,44.6,32.0,61,29.89,10.0,NE,23.0,32.2,N/A,,Clear,40,2013-03-16 12:55:00
8:15 AM,44.6,30.2,57,29.91,10.0,NNE,21.9,31.1,N/A,,Clear,30,2013-03-16 13:15:00
8:35 AM,44.6,30.2,57,29.92,10.0,NNE,23.0,28.8,N/A,,Clear,30,2013-03-16 13:35:00
8:55 AM,44.6,30.2,57,29.93,10.0,NNE,21.9,31.1,N/A,,Clear,30,2013-03-16 13:55:00
9:15 AM,44.6,30.2,57,29.94,10.0,NNE,23.0,33.4,N/A,,Clear,30,2013-03-16 14:15:00
9:35 AM,44.6,30.2,57,29.94,10.0,NE,25.3,34.5,N/A,,Clear,40,2013-03-16 14:35:00
9:55 AM,46.4,30.2,53,29.94,10.0,NE,26.5,34.5,N/A,,Clear,40,2013-03-16 14:55:00
10:15 AM,46.4,30.2,53,29.94,10.0,NE,29.9,35.7,N/A,,Clear,40,2013-03-16 15:15:00
10:35 AM,46.4,30.2,53,29.94,10.0,NE,25.3,34.5,N/A,,Clear,50,2013-03-16 15:35:00
10:55 AM,48.2,30.2,50,29.96,10.0,NE,26.5,-,N/A,,Clear,40,2013-03-16 15:55:00
11:15 AM,48.2,30.2,50,29.96,10.0,NE,23.0,31.1,N/A,,Clear,50,2013-03-16 16:15:00
11:35 AM,51.8,30.2,44,29.97,10.0,NNE,21.9,26.5,N/A,,Clear,30,2013-03-16 16:35:00
11:55 AM,51.8,33.8,50,29.98,10.0,NE,20.7,25.3,N/A,,Clear,40,2013-03-16 16:55:00
12:15 PM,51.8,32.0,47,29.98,10.0,NNE,21.9,27.6,N/A,,Clear,30,2013-03-16 17:15:00
12:35 PM,53.6,32.0,44,29.98,10.0,NE,18.4,-,N/A,,Clear,40,2013-03-16 17:35:00
12:55 PM,53.6,30.2,41,29.97,10.0,NNE,17.3,26.5,N/A,,Clear,30,2013-03-16 17:55:00
1:15 PM,53.6,30.2,41,29.96,10.0,NE,18.4,25.3,N/A,,Clear,50,2013-03-16 18:15:00
1:35 PM,55.4,32.0,41,29.96,10.0,NE,19.6,25.3,N/A,,Clear,50,2013-03-16 18:35:00
1:55 PM,53.6,30.2,41,29.95,10.0,NE,19.6,-,N/A,,Clear,50,2013-03-16 18:55:00
2:15 PM,53.6,30.2,41,29.94,10.0,NE,17.3,21.9,N/A,,Clear,50,2013-03-16 19:15:00
2:35 PM,55.4,30.2,38,29.93,10.0,NE,16.1,-,N/A,,Clear,50,2013-03-16 19:35:00
2:55 PM,55.4,30.2,38,29.92,10.0,NE,20.7,-,N/A,,Clear,40,2013-03-16 19:55:00
3:15 PM,55.4,28.4,36,29.92,10.0,NE,18.4,27.6,N/A,,Clear,40,2013-03-16 20:15:00
3:35 PM,53.6,28.4,38,29.91,10.0,NE,18.4,-,N/A,,Clear,40,2013-03-16 20:35:00
3:55 PM,53.6,28.4,38,29.90,10.0,NNE,18.4,23.0,N/A,,Clear,30,2013-03-16 20:55:00
4:15 PM,53.6,28.4,38,29.90,10.0,NE,18.4,-,N/A,,Clear,50,2013-03-16 21:15:00
4:35 PM,53.6,26.6,35,29.91,10.0,NE,16.1,-,N/A,,Clear,50,2013-03-16 21:35:00
4:55 PM,51.8,26.6,38,29.90,10.0,NE,16.1,-,N/A,,Clear,50,2013-03-16 21:55:00
5:15 PM,51.8,26.6,38,29.90,10.0,NE,17.3,20.7,N/A,,Clear,50,2013-03-16 22:15:00
5:35 PM,51.8,26.6,38,29.89,10.0,ENE,15.0,21.9,N/A,,Clear,60,2013-03-16 22:35:00
5:55 PM,51.8,26.6,38,29.89,10.0,NE,19.6,24.2,N/A,,Clear,50,2013-03-16 22:55:00
6:15 PM,50.0,26.6,40,29.90,10.0,NE,17.3,20.7,N/A,,Clear,50,2013-03-16 23:15:00
6:35 PM,50.0,24.8,37,29.90,10.0,NE,16.1,24.2,N/A,,Clear,50,2013-03-16 23:35:00
6:55 PM,48.2,24.8,40,29.90,10.0,ENE,15.0,-,N/A,,Clear,60,2013-03-16 23:55:00
7:15 PM,48.2,24.8,40,29.90,10.0,ENE,13.8,21.9,N/A,,Clear,60,2013-03-17 00:15:00
7:35 PM,46.4,24.8,43,29.92,10.0,NE,13.8,-,N/A,,Partly Cloudy,50,2013-03-17 00:35:00
7:55 PM,46.4,23.0,40,29.93,10.0,NE,16.1,-,N/A,,Mostly Cloudy,50,2013-03-17 00:55:00
8:15 PM,46.4,23.0,40,29.93,10.0,NE,16.1,-,N/A,,Overcast,50,2013-03-17 01:15:00
8:35 PM,44.6,23.0,43,29.94,10.0,NE,16.1,-,N/A,,Overcast,40,2013-03-17 01:35:00
8:55 PM,44.6,23.0,43,29.95,10.0,NE,15.0,-,N/A,,Overcast,40,2013-03-17 01:55:00
9:15 PM,42.8,21.2,42,29.96,10.0,NNE,17.3,-,N/A,,Overcast,30,2013-03-17 02:15:00
9:35 PM,42.8,23.0,46,29.97,10.0,NE,13.8,-,N/A,,Overcast,50,2013-03-17 02:35:00
9:55 PM,42.8,23.0,46,29.97,10.0,NE,18.4,-,N/A,,Overcast,50,2013-03-17 02:55:00
10:15 PM,41.0,21.2,45,29.97,10.0,NE,16.1,21.9,N/A,,Overcast,50,2013-03-17 03:15:00
10:35 PM,39.2,21.2,49,29.97,10.0,NE,21.9,26.5,N/A,,Overcast,50,2013-03-17 03:35:00
10:55 PM,39.2,21.2,49,29.97,10.0,ENE,13.8,-,N/A,,Overcast,60,2013-03-17 03:55:00
11:15 PM,39.2,21.2,49,29.98,10.0,ENE,17.3,-,N/A,,Overcast,60,2013-03-17 04:15:00
11:35 PM,37.4,21.2,52,29.97,10.0,NE,15.0,-,N/A,,Overcast,50,2013-03-17 04:35:00
11:55 PM,37.4,19.4,48,29.98,10.0,NE,16.1,-,N/A,,Overcast,50,2013-03-17 04:55:00